Weather at Moree Airport

Public forecast

Using degrees Celsius for public forecast. Weather courtesy of forecast.io.

Current aviation weather report (METAR) for Moree Airport

Retrieved 2020/11/25 10:00 UTC (49 minutes ago):

YMOR 251000Z AUTO 12005KT 9999 // NCD 29/07 Q1008

Closest aviation forecast (TAF) to Moree Airport

Closest forecast is Tamworth Airport, 108.4 nm (200.8 km) SSE. Retrieved 2020/11/25 06:00 UTC (5 hours ago):

TAF YSTW 250516Z 2506/2600 14010KT CAVOK FM251200 10010KT CAVOK FM252100 33006KT CAVOK